createdAt,value
2018-11-22T00:00:38.936Z,4.85
2018-11-22T00:01:38.969Z,4.87
2018-11-22T00:02:39.136Z,4.86
2018-11-22T00:03:39.186Z,4.87
2018-11-22T00:04:39.004Z,4.85
2018-11-22T00:05:39.108Z,4.86
2018-11-22T00:06:39.156Z,4.85
2018-11-22T00:07:38.921Z,4.86
2018-11-22T00:08:40.361Z,4.87
2018-11-22T00:09:38.999Z,4.88
2018-11-22T00:10:38.929Z,4.85
2018-11-22T00:11:38.948Z,4.87
2018-11-22T00:12:38.957Z,4.87
2018-11-22T00:13:39.362Z,4.86
2018-11-22T00:14:38.891Z,4.87
2018-11-22T00:15:38.935Z,4.87
2018-11-22T00:16:38.934Z,4.85
2018-11-22T00:17:38.943Z,4.86
2018-11-22T00:18:39.143Z,4.85
2018-11-22T00:19:39.026Z,4.86
2018-11-22T00:20:38.946Z,4.85
2018-11-22T00:21:38.902Z,4.85
2018-11-22T00:22:38.930Z,4.87
2018-11-22T00:23:38.895Z,4.88
2018-11-22T00:24:39.238Z,4.86
2018-11-22T00:25:38.987Z,4.86
2018-11-22T00:26:38.918Z,4.86
2018-11-22T00:27:38.917Z,4.85
2018-11-22T00:28:38.865Z,4.85
2018-11-22T00:29:38.946Z,4.87
2018-11-22T00:30:38.968Z,4.88
2018-11-22T00:31:39.061Z,4.87
2018-11-22T00:32:38.913Z,4.88
2018-11-22T00:33:39.094Z,4.88
2018-11-22T00:34:38.940Z,4.87
2018-11-22T00:35:39.146Z,4.87
2018-11-22T00:36:39.044Z,4.86
2018-11-22T00:37:38.931Z,4.88
2018-11-22T00:38:38.942Z,4.87
2018-11-22T00:39:39.203Z,4.88
2018-11-22T00:40:39.112Z,4.89
2018-11-22T00:41:39.150Z,4.89
2018-11-22T00:42:39.100Z,4.88
2018-11-22T00:43:39.091Z,4.87
2018-11-22T00:44:38.872Z,4.89
2018-11-22T00:45:39.346Z,4.9
2018-11-22T00:46:39.002Z,4.9
2018-11-22T00:47:38.868Z,4.89
2018-11-22T00:48:39.150Z,4.88
2018-11-22T00:49:38.896Z,4.88
2018-11-22T00:50:39.354Z,4.89
2018-11-22T00:51:39.613Z,4.87
2018-11-22T00:52:39.222Z,4.86
2018-11-22T00:53:39.107Z,4.87
2018-11-22T00:54:38.910Z,4.89
2018-11-22T00:55:39.080Z,4.86
2018-11-22T00:56:38.861Z,4.86
2018-11-22T00:57:39.209Z,4.83
2018-11-22T00:58:39.025Z,4.84
2018-11-22T00:59:38.932Z,4.84
2018-11-22T01:00:39.142Z,4.84
2018-11-22T01:01:38.978Z,4.83
2018-11-22T01:02:38.861Z,4.83
2018-11-22T01:03:38.928Z,4.82
2018-11-22T01:04:38.962Z,4.81
2018-11-22T01:05:38.925Z,4.8
2018-11-22T01:06:38.921Z,4.82
2018-11-22T01:07:38.877Z,4.79
2018-11-22T01:08:38.898Z,4.8
2018-11-22T01:09:39.108Z,4.79
2018-11-22T01:10:38.807Z,4.8
2018-11-22T01:11:39.108Z,4.79
2018-11-22T01:12:39.211Z,4.79
2018-11-22T01:13:39.192Z,4.79
2018-11-22T01:14:39.055Z,4.78
2018-11-22T01:15:39.156Z,4.77
2018-11-22T01:16:38.975Z,4.76
2018-11-22T01:17:38.845Z,4.74
2018-11-22T01:18:38.805Z,4.75
2018-11-22T01:19:38.877Z,4.77
2018-11-22T01:20:38.784Z,4.75
2018-11-22T01:21:38.975Z,4.75
2018-11-22T01:22:39.083Z,4.77
2018-11-22T01:23:38.999Z,4.77
2018-11-22T01:24:38.841Z,4.78
2018-11-22T01:25:39.125Z,4.78
2018-11-22T01:26:39.146Z,4.77
2018-11-22T01:27:39.240Z,4.77
2018-11-22T01:28:38.870Z,4.76
2018-11-22T01:29:38.982Z,4.78
2018-11-22T01:30:38.799Z,4.78
2018-11-22T01:31:38.856Z,4.8
2018-11-22T01:32:39.129Z,4.81
2018-11-22T01:33:39.180Z,4.8
2018-11-22T01:34:39.103Z,4.8
2018-11-22T01:35:38.850Z,4.79
2018-11-22T01:36:39.082Z,4.81
2018-11-22T01:37:39.040Z,4.82
2018-11-22T01:38:38.809Z,4.79
2018-11-22T01:39:39.211Z,4.79
2018-11-22T01:40:39.058Z,4.79
2018-11-22T01:41:38.814Z,4.8
2018-11-22T01:42:39.226Z,4.79
2018-11-22T01:43:38.802Z,4.79
2018-11-22T01:44:38.812Z,4.79
2018-11-22T01:45:38.913Z,4.78
2018-11-22T01:46:38.793Z,4.8
2018-11-22T01:47:38.807Z,4.8
2018-11-22T01:48:38.945Z,4.81
2018-11-22T01:49:38.779Z,4.82
2018-11-22T01:50:38.826Z,4.81
2018-11-22T01:51:38.902Z,4.82
2018-11-22T01:52:38.870Z,4.82
2018-11-22T01:53:38.833Z,4.81
2018-11-22T01:54:38.904Z,4.81
2018-11-22T01:55:38.886Z,4.81
2018-11-22T01:56:38.788Z,4.8
2018-11-22T01:57:38.870Z,4.82
2018-11-22T01:58:38.808Z,4.81
2018-11-22T01:59:38.837Z,4.81
2018-11-22T02:00:38.802Z,4.82
2018-11-22T02:01:38.833Z,4.81
2018-11-22T02:02:38.874Z,4.81
2018-11-22T02:03:39.202Z,4.82
2018-11-22T02:04:39.083Z,4.82
2018-11-22T02:05:39.132Z,4.8
2018-11-22T02:06:38.787Z,4.81
2018-11-22T02:07:39.007Z,4.79
2018-11-22T02:08:38.899Z,4.8
2018-11-22T02:09:38.752Z,4.8
2018-11-22T02:10:38.811Z,4.81
2018-11-22T02:11:38.765Z,4.82
2018-11-22T02:12:39.172Z,4.82
2018-11-22T02:13:38.778Z,4.81
2018-11-22T02:14:38.768Z,4.82
2018-11-22T02:15:39.067Z,4.81
2018-11-22T02:16:38.772Z,4.8
2018-11-22T02:17:38.911Z,4.81
2018-11-22T02:18:39.231Z,4.8
2018-11-22T02:19:38.742Z,4.81
2018-11-22T02:20:38.820Z,4.82
2018-11-22T02:21:38.772Z,4.81
2018-11-22T02:22:39.139Z,4.82
2018-11-22T02:23:38.923Z,4.82
2018-11-22T02:24:39.116Z,4.83
2018-11-22T02:25:38.729Z,4.81
2018-11-22T02:26:38.721Z,4.8
2018-11-22T02:27:38.933Z,4.79
2018-11-22T02:28:38.785Z,4.79
2018-11-22T02:29:38.827Z,4.79
2018-11-22T02:30:39.006Z,4.8
2018-11-22T02:31:39.098Z,4.79
2018-11-22T02:32:38.717Z,4.81
2018-11-22T02:33:38.775Z,4.82
2018-11-22T02:34:39.237Z,4.81
2018-11-22T02:35:39.447Z,4.82
2018-11-22T02:36:38.776Z,4.83
2018-11-22T02:37:38.718Z,4.82
2018-11-22T02:38:38.861Z,4.79
2018-11-22T02:39:38.912Z,4.8
2018-11-22T02:40:38.804Z,4.81
2018-11-22T02:41:38.861Z,4.8
2018-11-22T02:42:38.853Z,4.8
2018-11-22T02:43:38.755Z,4.8
2018-11-22T02:44:38.773Z,4.8
2018-11-22T02:45:38.775Z,4.8
2018-11-22T02:46:38.765Z,4.79
2018-11-22T02:47:38.886Z,4.79
2018-11-22T02:48:38.697Z,4.79
2018-11-22T02:49:39.120Z,4.8
2018-11-22T02:50:38.786Z,4.81
2018-11-22T02:51:39.118Z,4.8
2018-11-22T02:52:38.771Z,4.81
2018-11-22T02:53:38.846Z,4.81
2018-11-22T02:54:38.870Z,4.81
2018-11-22T02:55:38.796Z,4.79
2018-11-22T02:56:38.752Z,4.8
2018-11-22T02:57:38.855Z,4.8
2018-11-22T02:58:38.813Z,4.79
2018-11-22T02:59:38.700Z,4.81
2018-11-22T03:00:38.948Z,4.79
2018-11-22T03:01:39.175Z,4.79
2018-11-22T03:02:38.774Z,4.79
2018-11-22T03:03:38.933Z,4.8
2018-11-22T03:04:39.129Z,4.8
2018-11-22T03:05:38.667Z,4.8
2018-11-22T03:06:38.918Z,4.79
2018-11-22T03:07:38.708Z,4.8
2018-11-22T03:08:38.822Z,4.8
2018-11-22T03:09:38.780Z,4.81
2018-11-22T03:10:38.804Z,4.78
2018-11-22T03:11:38.746Z,4.8
2018-11-22T03:12:39.287Z,4.79
2018-11-22T03:13:38.732Z,4.8
2018-11-22T03:14:38.750Z,4.8
2018-11-22T03:15:38.710Z,4.8
2018-11-22T03:16:38.735Z,4.81
2018-11-22T03:17:38.689Z,4.79
2018-11-22T03:18:38.696Z,4.79
2018-11-22T03:19:39.050Z,4.79
2018-11-22T03:20:38.706Z,4.78
2018-11-22T03:21:38.734Z,4.79
2018-11-22T03:22:38.674Z,4.8
2018-11-22T03:23:38.719Z,4.79
2018-11-22T03:24:38.688Z,4.79
2018-11-22T03:25:38.671Z,4.81
2018-11-22T03:26:38.646Z,4.8
2018-11-22T03:27:38.651Z,4.8
2018-11-22T03:28:38.691Z,4.8
2018-11-22T03:29:38.700Z,4.81
2018-11-22T03:30:38.722Z,4.8
2018-11-22T03:31:38.944Z,4.81
2018-11-22T03:32:38.689Z,4.78
2018-11-22T03:33:38.799Z,4.8
2018-11-22T03:34:38.666Z,4.8
2018-11-22T03:35:38.694Z,4.8
2018-11-22T03:36:38.854Z,4.79
2018-11-22T03:37:38.702Z,4.78
2018-11-22T03:38:38.728Z,4.8
2018-11-22T03:39:38.866Z,4.79
2018-11-22T03:40:38.666Z,4.79
2018-11-22T03:41:38.746Z,4.79
2018-11-22T03:42:38.695Z,4.81
2018-11-22T03:43:38.703Z,4.8
2018-11-22T03:44:38.771Z,4.81
2018-11-22T03:45:38.755Z,4.81
2018-11-22T03:46:38.679Z,4.8
2018-11-22T03:47:38.804Z,4.79
2018-11-22T03:48:39.250Z,4.78
2018-11-22T03:49:39.228Z,4.79
2018-11-22T03:50:38.939Z,4.79
2018-11-22T03:51:38.665Z,4.78
2018-11-22T03:52:38.668Z,4.78
2018-11-22T03:53:38.733Z,4.78
2018-11-22T03:54:39.048Z,4.79
2018-11-22T03:55:38.629Z,4.78
2018-11-22T03:56:38.848Z,4.78
2018-11-22T03:57:38.695Z,4.78
2018-11-22T03:58:38.765Z,4.77
2018-11-22T03:59:38.760Z,4.77
2018-11-22T04:00:38.806Z,4.77
2018-11-22T04:01:38.631Z,4.77
2018-11-22T04:02:38.821Z,4.79
2018-11-22T04:03:38.737Z,4.79
2018-11-22T04:04:39.023Z,4.79
2018-11-22T04:05:38.620Z,4.79
2018-11-22T04:06:38.644Z,4.8
2018-11-22T04:07:38.628Z,4.79
2018-11-22T04:08:38.880Z,4.79
2018-11-22T04:09:38.629Z,4.8
2018-11-22T04:10:38.806Z,4.79
2018-11-22T04:11:38.797Z,4.78
2018-11-22T04:12:39.442Z,4.79
2018-11-22T04:13:38.793Z,4.78
2018-11-22T04:14:38.668Z,4.76
2018-11-22T04:15:38.620Z,4.76
2018-11-22T04:16:38.763Z,4.75
2018-11-22T04:17:38.568Z,4.76
2018-11-22T04:18:38.745Z,4.76
2018-11-22T04:19:38.769Z,4.75
2018-11-22T04:20:38.620Z,4.77
2018-11-22T04:21:38.969Z,4.76
2018-11-22T04:22:38.693Z,4.75
2018-11-22T04:23:38.672Z,4.76
2018-11-22T04:24:38.686Z,4.77
2018-11-22T04:25:38.585Z,4.75
2018-11-22T04:26:39.250Z,4.77
2018-11-22T04:27:38.600Z,4.76
2018-11-22T04:28:38.610Z,4.75
2018-11-22T04:29:38.973Z,4.75
2018-11-22T04:30:38.817Z,4.75
2018-11-22T04:31:38.568Z,4.75
2018-11-22T04:32:38.685Z,4.76
2018-11-22T04:33:38.623Z,4.75
2018-11-22T04:34:38.635Z,4.73
2018-11-22T04:35:38.639Z,4.73
2018-11-22T04:36:38.608Z,4.75
2018-11-22T04:37:38.550Z,4.73
2018-11-22T04:38:38.617Z,4.73
2018-11-22T04:39:38.639Z,4.75
2018-11-22T04:40:39.080Z,4.74
2018-11-22T04:41:38.664Z,4.74
2018-11-22T04:42:38.558Z,4.75
2018-11-22T04:43:38.582Z,4.74
2018-11-22T04:44:38.589Z,4.72
2018-11-22T04:45:39.102Z,4.73
2018-11-22T04:46:38.636Z,4.73
2018-11-22T04:47:38.579Z,4.73
2018-11-22T04:48:38.539Z,4.73
2018-11-22T04:49:38.729Z,4.72
2018-11-22T04:50:38.579Z,4.71
2018-11-22T04:51:38.670Z,4.73
2018-11-22T04:52:38.576Z,4.73
2018-11-22T04:53:38.626Z,4.74
2018-11-22T04:54:38.524Z,4.75
2018-11-22T04:55:38.541Z,4.75
2018-11-22T04:56:38.541Z,4.73
2018-11-22T04:57:38.558Z,4.72
2018-11-22T04:58:38.568Z,4.73
2018-11-22T04:59:38.527Z,4.74
2018-11-22T05:00:38.763Z,4.75
2018-11-22T05:01:38.540Z,4.75
2018-11-22T05:02:38.593Z,4.75
2018-11-22T05:03:39.225Z,4.75
2018-11-22T05:04:38.788Z,4.74
2018-11-22T05:05:38.635Z,4.75
2018-11-22T05:06:38.780Z,4.75
2018-11-22T05:07:38.496Z,4.75
2018-11-22T05:08:38.585Z,4.75
2018-11-22T05:09:38.671Z,4.75
2018-11-22T05:10:38.702Z,4.73
2018-11-22T05:11:38.539Z,4.74
2018-11-22T05:12:38.667Z,4.75
2018-11-22T05:13:38.669Z,4.73
2018-11-22T05:14:38.514Z,4.72
2018-11-22T05:15:39.353Z,4.72
2018-11-22T05:16:38.728Z,4.73
2018-11-22T05:17:38.493Z,4.73
2018-11-22T05:18:38.620Z,4.72
2018-11-22T05:19:38.611Z,4.73
2018-11-22T05:20:38.821Z,4.74
2018-11-22T05:21:38.513Z,4.74
2018-11-22T05:22:38.724Z,4.75
2018-11-22T05:23:38.638Z,4.74
2018-11-22T05:24:38.541Z,4.74
2018-11-22T05:25:38.525Z,4.73
2018-11-22T05:26:38.671Z,4.72
2018-11-22T05:27:38.508Z,4.73
2018-11-22T05:28:38.511Z,4.74
2018-11-22T05:29:38.541Z,4.74
2018-11-22T05:30:39.766Z,4.75
2018-11-22T05:31:38.566Z,4.74
2018-11-22T05:32:38.619Z,4.73
2018-11-22T05:33:38.607Z,4.73
2018-11-22T05:34:38.537Z,4.72
2018-11-22T05:35:38.573Z,4.73
2018-11-22T05:36:38.708Z,4.71
2018-11-22T05:37:38.656Z,4.73
2018-11-22T05:38:38.617Z,4.71
2018-11-22T05:39:38.853Z,4.72
2018-11-22T05:40:38.582Z,4.71
2018-11-22T05:41:44.001Z,4.72
2018-11-22T05:42:38.484Z,4.71
2018-11-22T05:43:38.540Z,4.72
2018-11-22T05:44:38.580Z,4.72
2018-11-22T05:45:38.724Z,4.72
2018-11-22T05:46:38.700Z,4.71
2018-11-22T05:47:38.499Z,4.72
2018-11-22T05:48:38.618Z,4.7
2018-11-22T05:49:38.602Z,4.71
2018-11-22T05:50:38.838Z,4.7
2018-11-22T05:51:38.527Z,4.7
2018-11-22T05:52:38.475Z,4.71
2018-11-22T05:53:38.638Z,4.7
2018-11-22T05:54:38.606Z,4.7
2018-11-22T05:55:38.817Z,4.71
2018-11-22T05:56:38.613Z,4.7
2018-11-22T05:57:39.089Z,4.7
2018-11-22T05:58:38.560Z,4.71
2018-11-22T05:59:38.689Z,4.68
2018-11-22T06:00:38.654Z,4.7
2018-11-22T06:01:38.526Z,4.69
2018-11-22T06:02:38.441Z,4.68
2018-11-22T06:03:38.572Z,4.68
2018-11-22T06:04:38.549Z,4.68
2018-11-22T06:05:38.585Z,4.67
2018-11-22T06:06:38.515Z,4.69
2018-11-22T06:07:38.607Z,4.68
2018-11-22T06:08:38.879Z,4.68
2018-11-22T06:09:38.459Z,4.69
2018-11-22T06:10:38.638Z,4.69
2018-11-22T06:11:38.505Z,4.7
2018-11-22T06:12:38.540Z,4.69
2018-11-22T06:13:38.456Z,4.69
2018-11-22T06:14:38.408Z,4.68
2018-11-22T06:15:38.509Z,4.69
2018-11-22T06:16:38.507Z,4.69
2018-11-22T06:17:38.430Z,4.69
2018-11-22T06:18:38.490Z,4.69
2018-11-22T06:19:38.426Z,4.69
2018-11-22T06:20:38.428Z,4.69
2018-11-22T06:21:38.418Z,4.69
2018-11-22T06:22:38.602Z,4.69
2018-11-22T06:23:38.435Z,4.68
2018-11-22T06:24:38.401Z,4.69
2018-11-22T06:25:38.415Z,4.69
2018-11-22T06:26:38.481Z,4.69
2018-11-22T06:27:38.684Z,4.69
2018-11-22T06:28:38.435Z,4.68
2018-11-22T06:29:38.475Z,4.69
2018-11-22T06:30:38.808Z,4.7
2018-11-22T06:31:38.417Z,4.69
2018-11-22T06:32:38.401Z,4.69
2018-11-22T06:33:38.405Z,4.69
2018-11-22T06:34:38.552Z,4.68
2018-11-22T06:35:38.412Z,4.69
2018-11-22T06:36:38.416Z,4.69
2018-11-22T06:37:38.731Z,4.68
2018-11-22T06:38:38.456Z,4.69
2018-11-22T06:39:38.544Z,4.69
2018-11-22T06:40:38.685Z,4.7
2018-11-22T06:41:38.576Z,4.7
2018-11-22T06:42:38.462Z,4.72
2018-11-22T06:43:38.608Z,4.69
2018-11-22T06:44:38.473Z,4.7
2018-11-22T06:45:38.606Z,4.7
2018-11-22T06:46:38.389Z,4.71
2018-11-22T06:47:38.464Z,4.7
2018-11-22T06:48:38.554Z,4.7
2018-11-22T06:49:38.441Z,4.69
2018-11-22T06:50:38.586Z,4.71
2018-11-22T06:51:38.426Z,4.7
2018-11-22T06:52:38.639Z,4.7
2018-11-22T06:53:38.405Z,4.71
2018-11-22T06:54:38.559Z,4.7
2018-11-22T06:55:38.416Z,4.7
2018-11-22T06:56:38.525Z,4.69
2018-11-22T06:57:38.449Z,4.71
2018-11-22T06:58:38.418Z,4.69
2018-11-22T06:59:38.475Z,4.69
2018-11-22T07:00:38.506Z,4.71
2018-11-22T07:01:38.460Z,4.71
2018-11-22T07:02:38.597Z,4.71
2018-11-22T07:03:38.884Z,4.71
2018-11-22T07:04:38.504Z,4.72
2018-11-22T07:05:38.449Z,4.71
2018-11-22T07:06:38.552Z,4.7
2018-11-22T07:07:38.498Z,4.71
2018-11-22T07:08:38.444Z,4.72
2018-11-22T07:09:38.467Z,4.73
2018-11-22T07:10:38.781Z,4.71
2018-11-22T07:11:38.485Z,4.72
2018-11-22T07:12:38.580Z,4.71
2018-11-22T07:13:38.551Z,4.71
2018-11-22T07:14:39.152Z,4.71
2018-11-22T07:15:38.376Z,4.7
2018-11-22T07:16:38.486Z,4.7
2018-11-22T07:17:38.453Z,4.7
2018-11-22T07:18:38.815Z,4.71
2018-11-22T07:19:38.455Z,4.7
2018-11-22T07:20:38.651Z,4.7
2018-11-22T07:21:38.452Z,4.7
2018-11-22T07:22:38.400Z,4.7
2018-11-22T07:23:38.376Z,4.69
2018-11-22T07:24:38.405Z,4.71
2018-11-22T07:25:38.341Z,4.7
2018-11-22T07:26:38.554Z,4.69
2018-11-22T07:27:38.561Z,4.71
2018-11-22T07:28:38.362Z,4.7
2018-11-22T07:29:38.360Z,4.71
2018-11-22T07:30:42.715Z,4.7
2018-11-22T07:31:38.319Z,4.7
2018-11-22T07:32:38.630Z,4.7
2018-11-22T07:33:38.893Z,4.69
2018-11-22T07:34:38.647Z,4.68
2018-11-22T07:35:38.463Z,4.7
2018-11-22T07:36:38.485Z,4.7
2018-11-22T07:37:38.883Z,4.7
2018-11-22T07:38:38.382Z,4.7
2018-11-22T07:39:38.515Z,4.69
2018-11-22T07:40:38.437Z,4.69
2018-11-22T07:41:38.356Z,4.7
2018-11-22T07:42:38.616Z,4.69
2018-11-22T07:43:38.900Z,4.7
2018-11-22T07:44:38.425Z,4.7
2018-11-22T07:45:38.310Z,4.7
2018-11-22T07:46:38.305Z,4.71
2018-11-22T07:47:38.391Z,4.7
2018-11-22T07:48:38.320Z,4.71
2018-11-22T07:49:38.325Z,4.71
2018-11-22T07:50:38.298Z,4.69
2018-11-22T07:51:38.271Z,4.69
2018-11-22T07:52:38.295Z,4.71
2018-11-22T07:53:38.289Z,4.69
2018-11-22T07:54:38.326Z,4.71
2018-11-22T07:55:38.284Z,4.7
2018-11-22T07:56:38.300Z,4.7
2018-11-22T07:57:38.313Z,4.7
2018-11-22T07:58:38.471Z,4.7
2018-11-22T07:59:38.591Z,4.7
2018-11-22T08:00:38.299Z,4.7
2018-11-22T08:01:38.343Z,4.71
2018-11-22T08:02:38.280Z,4.71
2018-11-22T08:03:38.285Z,4.7
2018-11-22T08:04:38.293Z,4.71
2018-11-22T08:05:38.310Z,4.72
2018-11-22T08:06:38.343Z,4.72
2018-11-22T08:07:38.453Z,4.72
2018-11-22T08:08:38.325Z,4.73
2018-11-22T08:09:38.393Z,4.73
2018-11-22T08:10:38.330Z,4.72
2018-11-22T08:11:38.370Z,4.73
2018-11-22T08:12:38.942Z,4.72
2018-11-22T08:13:38.343Z,4.74
2018-11-22T08:14:38.613Z,4.74
2018-11-22T08:15:39.170Z,4.74
2018-11-22T08:16:38.463Z,4.73
2018-11-22T08:17:38.347Z,4.73
2018-11-22T08:18:38.319Z,4.73
2018-11-22T08:19:38.260Z,4.75
2018-11-22T08:20:38.277Z,4.75
2018-11-22T08:21:38.584Z,4.74
2018-11-22T08:22:38.410Z,4.75
2018-11-22T08:23:38.272Z,4.75
2018-11-22T08:24:38.480Z,4.76
2018-11-22T08:25:38.390Z,4.75
2018-11-22T08:26:39.093Z,4.75
2018-11-22T08:27:38.359Z,4.76
2018-11-22T08:28:38.350Z,4.76
2018-11-22T08:29:38.368Z,4.75
2018-11-22T08:30:38.373Z,4.76
2018-11-22T08:31:38.377Z,4.76
2018-11-22T08:32:38.277Z,4.76
2018-11-22T08:33:38.335Z,4.76
2018-11-22T08:34:38.865Z,4.77
2018-11-22T08:35:38.374Z,4.76
2018-11-22T08:36:38.294Z,4.78
2018-11-22T08:37:38.246Z,4.75
2018-11-22T08:38:38.326Z,4.76
2018-11-22T08:39:38.242Z,4.75
2018-11-22T08:40:38.249Z,4.76
2018-11-22T08:41:38.325Z,4.77
2018-11-22T08:42:38.523Z,4.77
2018-11-22T08:43:38.271Z,4.76
2018-11-22T08:44:38.425Z,4.77
2018-11-22T08:45:38.302Z,4.77
2018-11-22T08:46:38.221Z,4.76
2018-11-22T08:47:38.414Z,4.76
2018-11-22T08:48:38.336Z,4.77
2018-11-22T08:49:38.380Z,4.74
2018-11-22T08:50:38.313Z,4.76
2018-11-22T08:51:38.245Z,4.76
2018-11-22T08:52:38.411Z,4.76
2018-11-22T08:53:38.271Z,4.77
2018-11-22T08:54:38.380Z,4.78
2018-11-22T08:55:38.309Z,4.76
2018-11-22T08:56:38.430Z,4.76
2018-11-22T08:57:38.336Z,4.75
2018-11-22T08:58:38.392Z,4.74
2018-11-22T08:59:38.527Z,4.75
2018-11-22T09:00:38.424Z,4.77
2018-11-22T09:01:38.564Z,4.76
2018-11-22T09:02:45.397Z,4.77
2018-11-22T09:03:38.363Z,4.77
2018-11-22T09:04:38.300Z,4.77
2018-11-22T09:05:38.274Z,4.79
2018-11-22T09:06:38.429Z,4.79
2018-11-22T09:07:38.429Z,4.76
2018-11-22T09:08:38.541Z,4.79
2018-11-22T09:09:38.347Z,4.78
2018-11-22T09:10:38.361Z,4.77
2018-11-22T09:11:38.282Z,4.77
2018-11-22T09:12:38.293Z,4.8
2018-11-22T09:13:38.403Z,4.8
2018-11-22T09:14:38.308Z,4.8
2018-11-22T09:15:38.286Z,4.79
2018-11-22T09:16:38.249Z,4.8
2018-11-22T09:17:38.227Z,4.8
2018-11-22T09:18:38.299Z,4.82
2018-11-22T09:19:38.402Z,4.8
2018-11-22T09:20:38.247Z,4.81
2018-11-22T09:21:38.226Z,4.82
2018-11-22T09:22:38.300Z,4.81
2018-11-22T09:23:38.850Z,4.81
2018-11-22T09:24:39.234Z,4.8
2018-11-22T09:25:38.240Z,4.81
2018-11-22T09:26:38.292Z,4.82
2018-11-22T09:27:38.261Z,4.84
2018-11-22T09:28:38.276Z,4.85
2018-11-22T09:29:39.913Z,4.84
2018-11-22T09:30:38.570Z,4.85
2018-11-22T09:31:38.228Z,4.85
2018-11-22T09:32:38.228Z,4.84
2018-11-22T09:33:38.238Z,4.84
2018-11-22T09:34:38.400Z,4.86
2018-11-22T09:35:38.218Z,4.84
2018-11-22T09:36:38.193Z,4.83
2018-11-22T09:37:38.269Z,4.84
2018-11-22T09:38:38.404Z,4.86
2018-11-22T09:39:38.210Z,4.84
2018-11-22T09:40:38.456Z,4.85
2018-11-22T09:41:38.247Z,4.81
2018-11-22T09:42:38.272Z,4.84
2018-11-22T09:43:38.340Z,4.83
2018-11-22T09:44:38.363Z,4.85
2018-11-22T09:45:38.410Z,4.85
2018-11-22T09:46:38.299Z,4.82
2018-11-22T09:47:38.366Z,4.81
2018-11-22T09:48:38.789Z,4.83
2018-11-22T09:49:38.185Z,4.84
2018-11-22T09:50:38.409Z,4.84
2018-11-22T09:51:38.373Z,4.87
2018-11-22T09:52:38.262Z,4.87
2018-11-22T09:53:38.351Z,4.88
2018-11-22T09:54:38.266Z,4.87
2018-11-22T09:55:38.269Z,4.89
2018-11-22T09:56:38.248Z,4.89
2018-11-22T09:57:38.176Z,4.88
2018-11-22T09:58:38.405Z,4.87
2018-11-22T09:59:38.264Z,4.87
2018-11-22T10:00:38.287Z,4.87
2018-11-22T10:01:38.183Z,4.86
2018-11-22T10:02:38.281Z,4.87
2018-11-22T10:03:38.135Z,4.87
2018-11-22T10:04:38.827Z,4.87
2018-11-22T10:05:38.483Z,4.89
2018-11-22T10:06:38.213Z,4.9
2018-11-22T10:07:38.196Z,4.89
2018-11-22T10:08:38.855Z,4.89
2018-11-22T10:09:38.347Z,4.89
2018-11-22T10:10:38.253Z,4.9
2018-11-22T10:11:38.154Z,4.89
2018-11-22T10:12:39.271Z,4.89
2018-11-22T10:13:38.206Z,4.89
2018-11-22T10:14:38.127Z,4.89
2018-11-22T10:15:38.215Z,4.89
2018-11-22T10:16:38.297Z,4.9
2018-11-22T10:17:38.384Z,4.9
2018-11-22T10:18:38.843Z,4.93
2018-11-22T10:19:38.247Z,4.92
2018-11-22T10:20:38.342Z,4.9
2018-11-22T10:21:38.223Z,4.9
2018-11-22T10:22:38.953Z,4.92
2018-11-22T10:23:38.473Z,4.93
2018-11-22T10:24:38.265Z,4.92
2018-11-22T10:25:38.272Z,4.91
2018-11-22T10:26:38.533Z,4.9
2018-11-22T10:27:38.106Z,4.92
2018-11-22T10:28:38.619Z,4.93
2018-11-22T10:29:38.238Z,4.94
2018-11-22T10:30:38.222Z,4.93
2018-11-22T10:31:38.807Z,4.95
2018-11-22T10:32:38.289Z,4.95
2018-11-22T10:33:38.104Z,4.94
2018-11-22T10:34:38.217Z,4.94
2018-11-22T10:35:38.108Z,4.95
2018-11-22T10:36:38.225Z,4.95
2018-11-22T10:37:38.483Z,4.93
2018-11-22T10:38:38.204Z,4.94
2018-11-22T10:39:38.156Z,4.95
2018-11-22T10:40:38.260Z,4.96
2018-11-22T10:41:38.634Z,4.97
2018-11-22T10:42:39.117Z,4.99
2018-11-22T10:43:38.214Z,5.01
2018-11-22T10:44:38.175Z,5.01
2018-11-22T10:45:38.191Z,4.99
2018-11-22T10:46:38.070Z,4.98
2018-11-22T10:47:38.157Z,4.98
2018-11-22T10:48:38.103Z,4.95
2018-11-22T10:49:38.167Z,4.98
2018-11-22T10:50:38.202Z,5.01
2018-11-22T10:51:38.059Z,4.99
2018-11-22T10:52:38.121Z,5.02
2018-11-22T10:53:38.068Z,5.03
2018-11-22T10:54:38.247Z,5.03
2018-11-22T10:55:38.263Z,5.02
2018-11-22T10:56:38.050Z,5.02
2018-11-22T10:57:38.119Z,5.02
2018-11-22T10:58:38.055Z,5.03
2018-11-22T10:59:38.114Z,5.04
2018-11-22T11:00:38.101Z,5.02
2018-11-22T11:01:38.199Z,5.01
2018-11-22T11:02:38.138Z,5.02
2018-11-22T11:03:38.113Z,5.01
2018-11-22T11:04:38.113Z,5.01
2018-11-22T11:05:38.322Z,4.99
2018-11-22T11:06:38.109Z,5
2018-11-22T11:07:38.104Z,5
2018-11-22T11:08:38.140Z,4.98
2018-11-22T11:09:38.086Z,4.99
2018-11-22T11:10:38.141Z,5
2018-11-22T11:11:38.179Z,5
2018-11-22T11:12:38.135Z,5.01
2018-11-22T11:13:38.177Z,5.02
2018-11-22T11:14:38.017Z,5.08
2018-11-22T11:15:38.056Z,5.08
2018-11-22T11:16:38.224Z,5.06
2018-11-22T11:17:38.405Z,5.11
2018-11-22T11:18:38.144Z,5.07
2018-11-22T11:19:38.173Z,5.1
2018-11-22T11:20:38.211Z,5.06
2018-11-22T11:21:38.274Z,5.08
2018-11-22T11:22:38.120Z,5.11
2018-11-22T11:23:38.454Z,5.11
2018-11-22T11:24:41.690Z,5.07
2018-11-22T11:25:38.166Z,5.07
2018-11-22T11:26:38.301Z,5.11
2018-11-22T11:27:38.202Z,5.11
2018-11-22T11:28:38.139Z,5.08
2018-11-22T11:29:38.403Z,5.08
2018-11-22T11:30:39.159Z,5
2018-11-22T11:31:38.117Z,4.99
2018-11-22T11:32:38.358Z,5.06
2018-11-22T11:33:38.070Z,5.05
2018-11-22T11:34:38.380Z,5.05
2018-11-22T11:35:38.105Z,5.08
2018-11-22T11:36:38.129Z,5.06
2018-11-22T11:37:38.184Z,5.07
2018-11-22T11:38:37.993Z,5.1
2018-11-22T11:39:38.217Z,5.04
2018-11-22T11:40:38.116Z,5.08
2018-11-22T11:41:38.385Z,5.07
2018-11-22T11:42:38.197Z,5.03
2018-11-22T11:43:38.208Z,5.02
2018-11-22T11:44:38.352Z,5
2018-11-22T11:45:38.101Z,5.04
2018-11-22T11:46:38.297Z,5.05
2018-11-22T11:47:38.149Z,5.07
2018-11-22T11:48:38.323Z,5.09
2018-11-22T11:49:38.124Z,5.08
2018-11-22T11:50:38.136Z,5.07
2018-11-22T11:51:38.161Z,5.05
2018-11-22T11:52:38.513Z,5.06
2018-11-22T11:53:42.103Z,5.07
2018-11-22T11:54:38.232Z,5.05
2018-11-22T11:55:38.153Z,5.04
2018-11-22T11:56:38.009Z,5.05
2018-11-22T11:57:38.157Z,5.08
2018-11-22T11:58:38.124Z,5.08
2018-11-22T11:59:38.312Z,5.08
2018-11-22T12:00:38.246Z,5.06
2018-11-22T12:01:38.067Z,5.01
2018-11-22T12:02:38.066Z,5.05
2018-11-22T12:03:38.214Z,5.04
2018-11-22T12:04:38.327Z,5.06
2018-11-22T12:05:38.225Z,5.04
2018-11-22T12:06:38.063Z,5.04
2018-11-22T12:07:38.227Z,5.03
2018-11-22T12:08:38.164Z,5.05
2018-11-22T12:09:38.089Z,5.08
2018-11-22T12:10:38.021Z,5.1
2018-11-22T12:11:38.328Z,5.11
2018-11-22T12:12:38.003Z,5.09
2018-11-22T12:13:38.626Z,5.13
2018-11-22T12:14:38.084Z,5.12
2018-11-22T12:15:38.089Z,5.1
2018-11-22T12:16:37.972Z,5.08
2018-11-22T12:17:38.122Z,5.08
2018-11-22T12:18:37.961Z,5.07
2018-11-22T12:19:37.930Z,5.11
2018-11-22T12:20:37.948Z,5.11
2018-11-22T12:21:38.059Z,5.11
2018-11-22T12:22:38.025Z,5.11
2018-11-22T12:23:37.992Z,5.11
2018-11-22T12:24:38.104Z,5.13
2018-11-22T12:25:38.001Z,5.14
2018-11-22T12:26:37.953Z,5.12
2018-11-22T12:27:38.239Z,5.12
2018-11-22T12:28:37.953Z,5.15
2018-11-22T12:29:37.965Z,5.13
2018-11-22T12:30:37.994Z,5.1
2018-11-22T12:31:37.979Z,5.11
2018-11-22T12:32:38.172Z,5.12
2018-11-22T12:33:38.091Z,5.1
2018-11-22T12:34:37.937Z,5.12
2018-11-22T12:35:38.076Z,5.11
2018-11-22T12:36:38.090Z,5.15
2018-11-22T12:37:43.597Z,5.12
2018-11-22T12:38:38.285Z,5.15
2018-11-22T12:39:38.109Z,5.09
2018-11-22T12:40:38.054Z,5.12
2018-11-22T12:41:37.984Z,5.14
2018-11-22T12:42:38.087Z,5.15
2018-11-22T12:43:37.988Z,5.14
2018-11-22T12:44:37.963Z,5.13
2018-11-22T12:45:38.108Z,5.1
2018-11-22T12:46:38.308Z,5.1
2018-11-22T12:47:38.263Z,5.11
2018-11-22T12:48:37.933Z,5.09
2018-11-22T12:49:37.957Z,5.11
2018-11-22T12:50:37.932Z,5.12
2018-11-22T12:51:38.033Z,5.11
2018-11-22T12:52:38.021Z,5.13
2018-11-22T12:53:38.414Z,5.11
2018-11-22T12:54:38.345Z,5.13
2018-11-22T12:55:37.902Z,5.14
2018-11-22T12:56:38.131Z,5.12
2018-11-22T12:57:38.039Z,5.14
2018-11-22T12:58:38.144Z,5.12
2018-11-22T12:59:38.113Z,5.13
2018-11-22T13:00:38.308Z,5.14
2018-11-22T13:01:37.940Z,5.16
2018-11-22T13:02:37.931Z,5.16
2018-11-22T13:03:38.109Z,5.15
2018-11-22T13:04:37.917Z,5.16
2018-11-22T13:05:37.937Z,5.16
2018-11-22T13:06:37.897Z,5.16
2018-11-22T13:07:38.264Z,5.15
2018-11-22T13:08:38.107Z,5.16
2018-11-22T13:09:37.927Z,5.16
2018-11-22T13:10:38.257Z,5.14
2018-11-22T13:11:37.967Z,5.16
2018-11-22T13:12:37.914Z,5.12
2018-11-22T13:13:38.150Z,5.16
2018-11-22T13:14:38.200Z,5.17
2018-11-22T13:15:38.024Z,5.18
2018-11-22T13:16:38.053Z,5.18
2018-11-22T13:17:37.929Z,5.17
2018-11-22T13:18:37.930Z,5.18
2018-11-22T13:19:38.419Z,5.17
2018-11-22T13:20:38.310Z,5.14
2018-11-22T13:21:37.884Z,5.17
2018-11-22T13:22:37.891Z,5.16
2018-11-22T13:23:37.955Z,5.18